Time;durP1;ratioP1;P1;durP2;ratioP2;P2;SDS_P1;SDS_P2;PMS_P1;PMS_P2;Temp;Humidity;BMP_temperature;BMP_pressure;BME280_temperature;BME280_humidity;BME280_pressure;Samples;Min_cycle;Max_cycle;Signal;HPM_P1;HPM_P2
2021/01/20 00:01:32;;;;;;;20.60;13.18;;;;;;;7.91;76.15;98537.25;5019508;28;20049;-84
2021/01/20 00:03:58;;;;;;;19.20;12.75;;;;;;;7.90;75.74;98538.19;5019186;28;20049;-85
2021/01/20 00:06:24;;;;;;;18.67;12.05;;;;;;;7.89;75.76;98526.03;5019597;28;20046;-85
2021/01/20 00:08:51;;;;;;;22.58;13.32;;;;;;;7.86;75.48;98529.72;5019463;28;20057;-84
2021/01/20 00:11:19;;;;;;;24.75;12.23;;;;;;;7.85;75.75;98522.75;5019647;28;20445;-85
2021/01/20 00:13:48;;;;;;;21.73;12.82;;;;;;;7.82;75.83;98518.56;5019982;28;20144;-85
2021/01/20 00:16:14;;;;;;;21.50;11.02;;;;;;;7.84;75.64;98518.47;5022074;28;20096;-86
2021/01/20 00:18:41;;;;;;;20.60;11.50;;;;;;;7.86;75.59;98515.75;5022728;28;20491;-85
2021/01/20 00:21:15;;;;;;;20.25;12.57;;;;;;;7.86;75.54;98500.88;5022680;28;20050;-86
2021/01/20 00:23:41;;;;;;;20.17;13.02;;;;;;;7.82;75.55;98508.09;5020252;28;20057;-86
2021/01/20 00:26:08;;;;;;;21.08;12.18;;;;;;;7.85;75.72;98501.00;5023185;28;20510;-86
2021/01/20 00:28:34;;;;;;;22.98;11.90;;;;;;;7.87;75.51;98512.19;5023027;28;20133;-87
2021/01/20 00:31:00;;;;;;;18.23;11.75;;;;;;;7.85;75.23;98490.50;5021452;28;20498;-86
2021/01/20 00:33:26;;;;;;;14.90;10.77;;;;;;;7.87;75.65;98499.94;5021378;28;20060;-84
2021/01/20 00:35:54;;;;;;;16.17;10.45;;;;;;;7.88;75.56;98495.53;5019070;28;20414;-83
2021/01/20 00:38:20;;;;;;;22.23;10.68;;;;;;;7.88;75.56;98483.28;5018924;28;20116;-84
2021/01/20 00:40:46;;;;;;;18.77;10.32;;;;;;;7.89;75.62;98482.31;5020491;28;20061;-83
2021/01/20 00:43:12;;;;;;;21.80;11.45;;;;;;;7.88;75.66;98501.63;5020126;28;20053;-83
2021/01/20 00:45:38;;;;;;;18.30;10.02;;;;;;;7.88;75.56;98491.13;5019721;28;20050;-84
2021/01/20 00:48:14;;;;;;;16.85;10.05;;;;;;;7.86;74.27;98486.94;5018623;28;20045;-84
2021/01/20 00:50:40;;;;;;;15.43;9.40;;;;;;;7.90;75.54;98475.31;5019195;28;20054;-84
2021/01/20 00:53:07;;;;;;;17.25;10.57;;;;;;;7.88;75.08;98487.66;5018798;28;20421;-85
2021/01/20 00:55:33;;;;;;;18.58;11.40;;;;;;;7.89;75.39;98474.47;5018953;28;20053;-85
2021/01/20 00:57:59;;;;;;;17.40;10.90;;;;;;;7.89;75.41;98477.09;5018885;28;20046;-85
2021/01/20 01:00:26;;;;;;;19.45;10.77;;;;;;;7.90;74.73;98489.25;5018414;28;20049;-86
2021/01/20 01:02:52;;;;;;;16.45;9.32;;;;;;;7.92;75.36;98466.41;5016096;28;20468;-85
2021/01/20 01:05:18;;;;;;;17.30;10.48;;;;;;;7.92;74.93;98450.69;5015900;28;20057;-84
2021/01/20 01:07:45;;;;;;;16.52;11.07;;;;;;;7.93;75.23;98467.25;5015999;28;20057;-85
2021/01/20 01:10:12;;;;;;;19.48;11.27;;;;;;;7.94;75.24;98461.91;5015670;28;20050;-84
2021/01/20 01:12:38;;;;;;;18.58;10.68;;;;;;;7.95;75.23;98460.97;5015522;28;20480;-84
2021/01/20 01:15:05;;;;;;;16.52;9.48;;;;;;;7.97;75.20;98467.88;5015780;28;20061;-85
2021/01/20 01:17:31;;;;;;;16.85;9.68;;;;;;;7.95;74.96;98458.34;5015176;28;20052;-84
2021/01/20 01:19:58;;;;;;;13.52;9.15;;;;;;;7.97;75.13;98455.63;5066618;22;20037;-83
2021/01/20 01:22:24;;;;;;;16.05;9.18;;;;;;;7.99;74.95;98447.66;5055632;28;20056;-83
2021/01/20 01:24:51;;;;;;;15.32;9.40;;;;;;;7.99;75.03;98448.50;5054752;28;20099;-83
2021/01/20 01:27:17;;;;;;;12.70;8.68;;;;;;;7.99;75.15;98445.06;5054728;28;20041;-83
2021/01/20 01:29:43;;;;;;;14.05;9.10;;;;;;;7.95;74.36;98450.50;5050778;28;20053;-82
2021/01/20 01:32:09;;;;;;;19.10;9.18;;;;;;;7.98;74.50;98441.56;5035399;28;20045;-83
2021/01/20 01:34:36;;;;;;;15.07;9.13;;;;;;;8.00;74.42;98441.47;5035972;28;20052;-84
2021/01/20 01:37:02;;;;;;;14.73;8.70;;;;;;;7.98;74.38;98446.81;5035660;28;20041;-83
2021/01/20 01:39:28;;;;;;;15.23;8.70;;;;;;;7.96;74.17;98446.06;5035663;28;20049;-83
2021/01/20 01:41:54;;;;;;;16.08;8.20;;;;;;;7.98;74.04;98445.97;5035539;28;20084;-85
2021/01/20 01:44:20;;;;;;;13.38;8.02;;;;;;;7.97;74.11;98431.19;5035734;28;20053;-82
2021/01/20 01:46:46;;;;;;;13.13;7.10;;;;;;;7.99;73.97;98442.44;5035314;28;20532;-83
2021/01/20 01:49:12;;;;;;;14.90;7.70;;;;;;;7.99;73.97;98434.56;5035489;28;20050;-82
2021/01/20 01:51:39;;;;;;;14.38;7.10;;;;;;;7.97;73.67;98436.44;5035539;28;20072;-83
2021/01/20 01:54:06;;;;;;;10.85;6.47;;;;;;;7.99;73.79;98434.56;5035255;28;20504;-83
2021/01/20 01:56:32;;;;;;;10.35;6.38;;;;;;;7.99;73.80;98432.78;5035603;28;20064;-82
2021/01/20 01:58:58;;;;;;;13.98;6.47;;;;;;;7.98;73.38;98444.19;5035068;28;20111;-82
2021/01/20 02:01:24;;;;;;;11.68;6.28;;;;;;;7.95;73.17;98442.63;5035180;28;20061;-83
2021/01/20 02:03:52;;;;;;;9.95;5.82;;;;;;;7.95;73.31;98444.41;5034905;28;20494;-82
2021/01/20 02:06:18;;;;;;;9.18;5.47;;;;;;;7.93;73.23;98435.81;5035238;28;20445;-83
2021/01/20 02:08:46;;;;;;;8.32;5.53;;;;;;;7.91;73.17;98435.91;5035070;28;20489;-82
2021/01/20 02:11:18;;;;;;;13.13;5.40;;;;;;;7.88;73.00;98437.88;5034706;28;20053;-82
2021/01/20 02:14:08;;;;;;;12.27;5.32;;;;;;;7.80;71.67;98436.63;5033979;28;20080;-83
2021/01/20 02:16:39;;;;;;;10.85;4.80;;;;;;;7.80;73.16;98420.06;5034825;28;20494;-82
2021/01/20 02:19:10;;;;;;;11.85;5.32;;;;;;;7.76;72.96;98418.59;5033735;28;20049;-82
2021/01/20 02:22:10;;;;;;;12.73;5.70;;;;;;;7.67;71.07;98420.06;5034546;28;20053;-82
2021/01/20 02:25:10;;;;;;;10.60;5.50;;;;;;;7.64;72.32;98410.63;5034872;28;20045;-82
2021/01/20 02:28:13;;;;;;;8.73;4.90;;;;;;;7.60;72.23;98392.59;5034866;28;20111;-82
2021/01/20 02:30:42;;;;;;;11.27;5.70;;;;;;;7.56;73.49;98402.44;5034361;28;20465;-82
2021/01/20 02:33:11;;;;;;;14.63;5.07;;;;;;;7.54;73.62;98393.84;5034362;28;20402;-83
2021/01/20 02:35:39;;;;;;;9.32;4.80;;;;;;;7.49;73.69;98399.41;5034506;28;20054;-82
2021/01/20 02:38:07;;;;;;;9.43;4.78;;;;;;;7.51;73.88;98391.44;5033273;28;20055;-83
2021/01/20 02:40:34;;;;;;;9.93;5.00;;;;;;;7.51;73.99;98388.81;5034867;28;20211;-82
2021/01/20 02:43:00;;;;;;;11.63;4.80;;;;;;;7.51;74.37;98389.66;5034262;28;20103;-82
2021/01/20 02:45:27;;;;;;;14.52;4.88;;;;;;;7.51;73.50;98394.06;5034426;28;20053;-83
2021/01/20 02:47:54;;;;;;;14.95;4.88;;;;;;;7.50;73.73;98384.50;5034451;28;20057;-82
2021/01/20 02:50:21;;;;;;;7.65;5.32;;;;;;;7.49;73.64;98381.06;5034276;28;20054;-82
2021/01/20 02:53:09;;;;;;;11.93;5.13;;;;;;;7.48;73.10;98373.31;5034057;28;20053;-82
2021/01/20 02:55:36;;;;;;;12.70;5.20;;;;;;;7.50;73.95;98382.75;5034328;28;20136;-82
2021/01/20 02:58:08;;;;;;;12.82;5.40;;;;;;;7.51;73.32;98373.94;5033919;28;20548;-82
2021/01/20 03:00:38;;;;;;;8.50;3.80;;;;;;;7.54;73.85;98375.50;5033904;28;20053;-83
2021/01/20 03:03:08;;;;;;;8.52;4.78;;;;;;;7.57;73.65;98367.47;5032929;28;20140;-82
2021/01/20 03:05:37;;;;;;;12.00;5.68;;;;;;;7.55;73.82;98377.19;5034060;28;20107;-82
2021/01/20 03:08:04;;;;;;;11.75;5.70;;;;;;;7.57;73.73;98383.16;5034120;28;20092;-82
2021/01/20 03:10:30;;;;;;;13.63;6.15;;;;;;;7.59;73.92;98370.78;5033762;28;20049;-83
2021/01/20 03:12:57;;;;;;;17.45;5.85;;;;;;;7.59;73.93;98381.28;5032371;28;20056;-83
2021/01/20 03:15:30;;;;;;;12.48;6.07;;;;;;;7.62;73.51;98377.63;5033102;28;20056;-83
2021/01/20 03:17:56;;;;;;;15.30;5.85;;;;;;;7.64;73.96;98376.59;5033765;28;20500;-83
2021/01/20 03:20:23;;;;;;;9.77;6.03;;;;;;;7.65;73.71;98369.56;5033517;28;20085;-82
2021/01/20 03:22:49;;;;;;;9.70;5.93;;;;;;;7.66;72.91;98377.31;5033568;28;20099;-82
2021/01/20 03:25:15;;;;;;;13.90;6.72;;;;;;;7.65;73.57;98374.78;5033425;28;20050;-82
2021/01/20 03:27:42;;;;;;;13.70;6.20;;;;;;;7.68;73.16;98353.63;5033799;28;20041;-83
2021/01/20 03:30:08;;;;;;;12.77;6.40;;;;;;;7.71;73.16;98365.69;5033384;28;20461;-83
2021/01/20 03:32:35;;;;;;;10.45;6.60;;;;;;;7.72;73.17;98367.34;5032268;28;20140;-82
2021/01/20 03:35:01;;;;;;;10.38;5.78;;;;;;;7.75;73.57;98365.38;5033417;28;20053;-83
2021/01/20 03:37:28;;;;;;;15.13;6.05;;;;;;;7.77;73.70;98358.25;5033772;28;20041;-82
2021/01/20 03:39:55;;;;;;;12.25;6.50;;;;;;;7.80;73.88;98365.06;5033527;28;20061;-83
2021/01/20 03:42:21;;;;;;;13.38;6.22;;;;;;;7.80;73.48;98355.44;5033219;28;20045;-82
2021/01/20 03:44:47;;;;;;;9.77;6.10;;;;;;;7.83;73.49;98357.00;5033294;28;20056;-83
2021/01/20 03:47:13;;;;;;;11.00;5.32;;;;;;;7.84;73.32;98363.09;5033525;28;20133;-82
2021/01/20 03:49:39;;;;;;;12.13;6.55;;;;;;;7.86;73.31;98356.78;5033507;28;20053;-82
2021/01/20 03:52:05;;;;;;;11.32;6.35;;;;;;;7.84;73.35;98345.56;5032158;28;20056;-83
2021/01/20 03:54:31;;;;;;;10.18;5.75;;;;;;;7.86;73.19;98348.94;5032144;28;20061;-82
2021/01/20 03:56:57;;;;;;;11.93;5.93;;;;;;;7.85;72.88;98352.47;5033306;28;20045;-82
2021/01/20 03:59:24;;;;;;;11.68;6.35;;;;;;;7.88;73.12;98344.41;5033103;28;20045;-82
2021/01/20 04:01:50;;;;;;;11.50;6.60;;;;;;;7.90;73.24;98339.94;5033470;28;20053;-82
2021/01/20 04:04:16;;;;;;;12.10;6.07;;;;;;;7.90;73.37;98342.53;5033067;28;20136;-82
2021/01/20 04:06:45;;;;;;;10.50;5.82;;;;;;;7.90;72.63;98345.16;5033325;28;20123;-82
2021/01/20 04:09:11;;;;;;;12.25;7.03;;;;;;;7.91;72.97;98344.22;5033111;28;20053;-82
2021/01/20 04:11:37;;;;;;;11.48;6.53;;;;;;;7.90;73.12;98360.88;5032183;28;20042;-82
2021/01/20 04:14:03;;;;;;;11.82;7.15;;;;;;;7.89;72.63;98343.47;5033019;28;20065;-82
2021/01/20 04:16:29;;;;;;;11.73;6.43;;;;;;;7.90;73.60;98334.69;5033411;28;20132;-82
2021/01/20 04:18:56;;;;;;;11.10;6.45;;;;;;;7.93;73.53;98342.31;5033028;28;20548;-82
2021/01/20 04:21:22;;;;;;;14.27;6.60;;;;;;;7.94;73.71;98344.00;5032873;28;20383;-82
2021/01/20 04:23:48;;;;;;;11.48;6.40;;;;;;;7.95;73.57;98327.34;5033135;28;20450;-82
2021/01/20 04:26:14;;;;;;;11.43;6.55;;;;;;;7.97;73.84;98329.84;5033188;28;20050;-82
2021/01/20 04:28:40;;;;;;;11.07;7.00;;;;;;;7.94;73.97;98322.19;5032726;28;20049;-82
2021/01/20 04:31:06;;;;;;;11.82;7.20;;;;;;;7.93;73.77;98326.59;5032796;28;20564;-82
2021/01/20 04:33:32;;;;;;;10.32;5.95;;;;;;;7.93;73.83;98325.78;5032701;28;20541;-82
2021/01/20 04:35:59;;;;;;;10.88;6.55;;;;;;;7.91;74.24;98322.41;5034009;28;20498;-83
2021/01/20 04:38:25;;;;;;;14.35;6.47;;;;;;;7.90;73.85;98321.59;5036785;28;20065;-82
2021/01/20 04:40:53;;;;;;;13.35;6.70;;;;;;;7.86;74.26;98314.03;5036520;28;20101;-82
2021/01/20 04:43:19;;;;;;;9.35;5.95;;;;;;;7.82;74.44;98310.78;5035101;28;20053;-82
2021/01/20 04:45:47;;;;;;;10.80;6.28;;;;;;;7.79;74.66;98324.09;5036661;28;20045;-82
2021/01/20 04:48:15;;;;;;;11.27;6.53;;;;;;;7.74;74.74;98311.31;5035472;28;20068;-82
2021/01/20 04:50:43;;;;;;;9.25;6.68;;;;;;;7.71;75.16;98314.16;5035275;28;20413;-82
2021/01/20 04:53:10;;;;;;;9.07;6.18;;;;;;;7.69;75.01;98302.94;5036068;28;20453;-83
2021/01/20 04:55:44;;;;;;;11.75;6.97;;;;;;;7.61;75.53;98300.00;5035374;28;20053;-82
2021/01/20 04:58:12;;;;;;;10.40;6.57;;;;;;;7.63;75.17;98293.69;5036357;28;20084;-82
2021/01/20 05:00:39;;;;;;;10.02;6.35;;;;;;;7.61;75.79;98306.06;5036397;28;20053;-82
2021/01/20 05:03:06;;;;;;;11.48;6.60;;;;;;;7.59;75.88;98292.22;5035864;28;20517;-82
2021/01/20 05:05:34;;;;;;;11.35;6.65;;;;;;;7.57;75.77;98291.50;5036220;28;20077;-82
2021/01/20 05:08:09;;;;;;;9.25;6.05;;;;;;;7.56;75.70;98295.09;5036469;28;20068;-82
2021/01/20 05:10:35;;;;;;;10.40;5.38;;;;;;;7.59;75.81;98267.84;5036469;28;20064;-82
2021/01/20 05:13:01;;;;;;;9.07;6.13;;;;;;;7.60;76.02;98262.50;5035962;28;20049;-82
2021/01/20 05:15:32;;;;;;;12.63;6.20;;;;;;;7.60;75.79;98267.75;5035896;28;20398;-82
2021/01/20 05:17:59;;;;;;;9.40;5.85;;;;;;;7.62;76.26;98260.59;5035927;28;20041;-82
2021/01/20 05:20:29;;;;;;;13.23;5.78;;;;;;;7.64;75.66;98263.97;5035781;28;20050;-82
2021/01/20 05:23:03;;;;;;;7.47;5.30;;;;;;;7.66;75.62;98267.31;5035686;28;20124;-82
2021/01/20 05:25:34;;;;;;;8.65;5.40;;;;;;;7.67;75.80;98255.06;5035900;28;20049;-82
2021/01/20 05:28:18;;;;;;;9.00;5.53;;;;;;;7.69;75.35;98255.78;5035839;28;20046;-82
2021/01/20 05:30:46;;;;;;;11.07;5.00;;;;;;;7.73;75.97;98245.94;5035686;28;20060;-82
2021/01/20 05:33:15;;;;;;;6.63;4.53;;;;;;;7.74;75.66;98248.44;5035411;28;20072;-82
2021/01/20 05:36:01;;;;;;;7.30;4.72;;;;;;;7.78;75.33;98249.91;5034938;28;20063;-82
2021/01/20 05:38:37;;;;;;;8.68;5.15;;;;;;;7.79;74.66;98237.66;5035669;28;20045;-82
2021/01/20 05:41:19;;;;;;;9.80;5.18;;;;;;;7.81;73.96;98241.84;5034407;28;20104;-83
2021/01/20 05:43:48;;;;;;;6.50;4.07;;;;;;;7.86;74.79;98228.44;5034020;28;20072;-82
2021/01/20 05:46:29;;;;;;;10.90;5.10;;;;;;;7.89;74.10;98222.94;5035458;28;20049;-82
2021/01/20 05:48:55;;;;;;;6.93;4.10;;;;;;;7.95;74.67;98226.91;5035854;28;20053;-82
2021/01/20 05:51:22;;;;;;;7.43;4.63;;;;;;;7.94;73.73;98213.00;5035273;28;20084;-82
2021/01/20 05:53:50;;;;;;;6.82;4.15;;;;;;;8.00;74.74;98227.44;5035030;28;20107;-83
2021/01/20 05:56:24;;;;;;;7.88;3.95;;;;;;;7.99;73.79;98223.13;5035255;28;20057;-82
2021/01/20 05:58:50;;;;;;;10.60;4.20;;;;;;;8.05;74.68;98214.84;5035129;28;20091;-82
2021/01/20 06:01:17;;;;;;;8.93;3.90;;;;;;;8.08;74.30;98216.41;5035053;28;20062;-82
2021/01/20 06:03:43;;;;;;;5.47;3.92;;;;;;;8.15;74.59;98220.25;5035074;28;20049;-82
2021/01/20 06:06:10;;;;;;;6.63;4.18;;;;;;;8.19;74.40;98213.03;5034991;28;20055;-82
2021/01/20 06:08:36;;;;;;;5.22;3.53;;;;;;;8.22;74.33;98207.53;5035115;28;20072;-82
2021/01/20 06:11:04;;;;;;;6.00;4.00;;;;;;;8.27;74.29;98208.06;5034879;28;20056;-82
2021/01/20 06:13:31;;;;;;;10.32;4.05;;;;;;;8.29;74.17;98202.69;5034799;28;20045;-82
2021/01/20 06:16:00;;;;;;;5.88;3.42;;;;;;;8.32;73.79;98198.06;5035285;28;20049;-82
2021/01/20 06:18:32;;;;;;;7.40;4.13;;;;;;;8.35;73.69;98197.81;5034878;28;20049;-82
2021/01/20 06:20:58;;;;;;;10.15;3.83;;;;;;;8.39;73.60;98201.09;5034525;28;20053;-82
2021/01/20 06:23:25;;;;;;;5.10;3.60;;;;;;;8.43;74.02;98196.44;5034674;28;20469;-82
2021/01/20 06:26:01;;;;;;;6.45;3.78;;;;;;;8.42;73.22;98198.25;5034789;28;20072;-82
2021/01/20 06:28:27;;;;;;;4.97;3.38;;;;;;;8.48;73.74;98200.41;5034811;28;20049;-82
2021/01/20 06:30:55;;;;;;;6.30;3.35;;;;;;;8.50;73.27;98191.59;5034635;28;20056;-82
2021/01/20 06:33:28;;;;;;;5.18;3.60;;;;;;;8.50;72.10;98187.19;5034357;28;20100;-83
2021/01/20 06:35:54;;;;;;;6.78;3.53;;;;;;;8.54;73.57;98178.16;5034614;28;20308;-82
2021/01/20 06:38:29;;;;;;;6.18;3.72;;;;;;;8.55;71.86;98184.22;5034563;28;20045;-82
2021/01/20 06:41:00;;;;;;;6.57;3.38;;;;;;;8.59;73.49;98189.16;5034367;28;20049;-82
2021/01/20 06:43:46;;;;;;;6.63;4.00;;;;;;;8.57;70.71;98187.59;5034152;28;20111;-82
2021/01/20 06:46:19;;;;;;;6.90;3.90;;;;;;;8.62;72.20;98185.47;5034415;28;20049;-82
2021/01/20 06:48:51;;;;;;;5.53;3.33;;;;;;;8.61;70.99;98186.41;5034273;28;20132;-82
2021/01/20 06:51:17;;;;;;;9.50;3.58;;;;;;;8.67;73.20;98193.00;5034123;28;20049;-83
2021/01/20 06:54:00;;;;;;;15.43;4.45;;;;;;;8.63;70.27;98189.75;5034246;28;20391;-82
2021/01/20 06:56:36;;;;;;;16.88;3.90;;;;;;;8.66;71.39;98192.16;5034010;28;20075;-83
2021/01/20 06:59:30;;;;;;;5.65;3.55;;;;;;;8.66;71.14;98197.41;5033374;28;20556;-83
2021/01/20 07:02:10;;;;;;;6.63;3.30;;;;;;;8.67;71.05;98193.81;5034187;28;20054;-83
2021/01/20 07:04:36;;;;;;;7.47;3.72;;;;;;;8.71;72.17;98187.41;5034299;28;20054;-82
2021/01/20 07:07:07;;;;;;;5.38;3.55;;;;;;;8.67;69.08;98196.44;5032881;28;20041;-83
2021/01/20 07:09:57;;;;;;;7.93;3.78;;;;;;;8.68;68.39;98202.53;5034129;28;20057;-83
2021/01/20 07:12:25;;;;;;;4.65;3.20;;;;;;;8.74;72.21;98194.19;5033840;28;20056;-83
2021/01/20 07:14:52;;;;;;;5.10;3.60;;;;;;;8.73;70.94;98197.78;5033918;28;20056;-83
2021/01/20 07:17:18;;;;;;;6.50;3.28;;;;;;;8.73;71.34;98190.75;5033836;28;20555;-83
2021/01/20 07:52:16;;;;;;;5.35;2.75;;;;;;;8.87;69.25;98181.00;5012013;28;20049;-88
2021/01/20 07:54:57;;;;;;;4.82;2.97;;;;;;;8.89;70.02;98170.41;5006909;28;20054;-88
2021/01/20 08:00:11;;;;;;;5.47;2.85;;;;;;;8.89;70.57;98186.97;5052121;23;20088;-85
2021/01/20 08:02:46;;;;;;;5.78;3.33;;;;;;;8.84;67.91;98191.72;5013313;28;20494;-84
2021/01/20 08:05:13;;;;;;;5.22;2.95;;;;;;;8.90;70.59;98193.88;5012498;28;20054;-85
2021/01/20 08:07:39;;;;;;;4.57;3.03;;;;;;;8.90;70.03;98178.13;5012242;28;20050;-84
2021/01/20 08:10:26;;;;;;;5.57;2.67;;;;;;;8.88;67.64;98190.53;5014510;28;20100;-85
2021/01/20 08:12:52;;;;;;;6.75;3.08;;;;;;;8.96;70.31;98189.97;5017487;28;20050;-85
2021/01/20 08:15:20;;;;;;;4.65;2.78;;;;;;;8.95;70.17;98180.41;5017393;28;20054;-84
2021/01/20 08:17:47;;;;;;;3.70;3.00;;;;;;;8.98;70.52;98175.75;5017370;28;20068;-85
2021/01/20 08:20:13;;;;;;;4.68;2.97;;;;;;;8.96;69.82;98175.06;5017434;28;20046;-84
2021/01/20 08:22:45;;;;;;;3.63;2.67;;;;;;;8.96;68.43;98187.34;5015694;28;20100;-85
2021/01/20 08:25:18;;;;;;;7.30;2.60;;;;;;;8.95;66.47;98183.91;5017284;28;20418;-84
2021/01/20 08:27:45;;;;;;;4.20;2.47;;;;;;;9.03;70.04;98172.81;5017385;28;20050;-85
2021/01/20 08:30:14;;;;;;;3.53;2.42;;;;;;;9.06;69.75;98172.56;5017190;28;20069;-84
2021/01/20 08:32:54;;;;;;;3.78;2.28;;;;;;;9.07;66.86;98174.25;5015855;28;20081;-85
2021/01/20 08:35:28;;;;;;;3.83;2.58;;;;;;;9.11;68.34;98173.06;5017122;28;20081;-85
2021/01/20 08:37:54;;;;;;;4.20;2.40;;;;;;;9.17;69.90;98166.50;5017043;28;20442;-85
2021/01/20 08:40:21;;;;;;;4.30;2.40;;;;;;;9.21;69.71;98177.59;5015893;28;20050;-85
2021/01/20 08:42:47;;;;;;;3.38;2.38;;;;;;;9.23;69.80;98175.66;5016952;28;20053;-85
2021/01/20 08:45:14;;;;;;;4.07;2.67;;;;;;;9.24;69.27;98175.56;5016476;28;20053;-85
2021/01/20 08:47:59;;;;;;;3.35;2.25;;;;;;;9.19;64.18;98180.34;5016798;28;20050;-84
2021/01/20 08:50:47;;;;;;;3.17;2.20;;;;;;;9.29;67.78;98171.75;5016761;28;20517;-84
2021/01/20 08:53:25;;;;;;;4.35;2.50;;;;;;;9.32;66.76;98192.53;5015449;28;20053;-84
2021/01/20 08:55:53;;;;;;;4.93;2.13;;;;;;;9.37;68.53;98169.34;5016936;28;20049;-84
2021/01/20 08:58:34;;;;;;;3.65;2.22;;;;;;;9.39;68.47;98167.47;5016618;28;20046;-85
2021/01/20 09:01:03;;;;;;;3.85;2.20;;;;;;;9.47;69.73;98180.00;5016511;28;20064;-85
2021/01/20 09:03:31;;;;;;;4.53;2.10;;;;;;;9.51;68.68;98171.75;5016252;28;20049;-85
2021/01/20 09:05:59;;;;;;;3.70;1.88;;;;;;;9.55;69.26;98185.47;5016614;28;20061;-86
2021/01/20 09:08:28;;;;;;;3.83;2.10;;;;;;;9.56;68.11;98191.56;5016323;28;20082;-84
2021/01/20 09:10:55;;;;;;;4.05;2.00;;;;;;;9.60;69.55;98180.69;5015461;28;20075;-85
2021/01/20 09:13:22;;;;;;;3.38;1.90;;;;;;;9.64;69.34;98176.03;5016219;28;20101;-85
2021/01/20 09:15:50;;;;;;;4.07;1.90;;;;;;;9.64;69.10;98171.63;5015248;28;20050;-84
2021/01/20 09:18:17;;;;;;;3.00;1.88;;;;;;;9.67;69.36;98181.06;5015019;28;20054;-84
2021/01/20 09:20:44;;;;;;;4.85;1.88;;;;;;;9.65;68.87;98170.66;5016071;28;20049;-84
2021/01/20 09:23:10;;;;;;;4.95;2.28;;;;;;;9.68;69.13;98181.91;5015359;28;20049;-84
2021/01/20 09:25:37;;;;;;;3.60;2.10;;;;;;;9.70;69.47;98177.34;5016228;28;20046;-85
2021/01/20 09:28:04;;;;;;;5.20;2.03;;;;;;;9.72;69.71;98188.59;5016078;28;20486;-85
2021/01/20 09:30:30;;;;;;;2.50;1.88;;;;;;;9.70;68.63;98201.84;5015010;28;20057;-84
2021/01/20 09:32:56;;;;;;;3.47;1.98;;;;;;;9.72;69.68;98189.41;5015845;28;20053;-86
2021/01/20 09:35:23;;;;;;;5.80;2.88;;;;;;;9.74;69.31;98184.03;5015246;28;20494;-85
2021/01/20 09:37:53;;;;;;;7.35;2.28;;;;;;;9.72;68.33;98185.97;5015698;28;20533;-82
2021/01/20 09:40:21;;;;;;;4.30;2.17;;;;;;;9.71;67.42;98187.72;5015914;28;20120;-82
2021/01/20 09:42:48;;;;;;;3.00;2.10;;;;;;;9.71;68.62;98187.72;5015657;28;20050;-82
2021/01/20 09:45:17;;;;;;;4.75;2.03;;;;;;;9.72;68.41;98186.78;5004577;28;20061;-81
2021/01/20 09:47:44;;;;;;;2.78;1.85;;;;;;;9.74;68.69;98184.03;5003754;28;20512;-82
2021/01/20 09:50:12;;;;;;;5.03;2.42;;;;;;;9.74;68.49;98176.16;4995419;28;20556;-86
2021/01/20 09:52:39;;;;;;;3.80;2.00;;;;;;;9.78;69.42;98190.72;4993679;28;20058;-83
2021/01/20 09:55:07;;;;;;;2.97;1.77;;;;;;;9.81;69.25;98205.41;4995448;28;20054;-82
2021/01/20 09:57:33;;;;;;;3.88;1.85;;;;;;;9.85;69.73;98185.81;4995430;28;20094;-83
2021/01/20 10:00:01;;;;;;;3.97;1.67;;;;;;;9.85;69.30;98177.91;4994817;28;20053;-82
2021/01/20 10:02:27;;;;;;;4.78;1.75;;;;;;;9.84;68.63;98184.16;4995139;28;20418;-82
2021/01/20 10:04:53;;;;;;;3.75;2.15;;;;;;;9.85;68.82;98177.91;4995309;28;20133;-82
2021/01/20 10:07:20;;;;;;;4.18;2.35;;;;;;;9.84;68.62;98178.88;4995181;28;20053;-82
2021/01/20 10:09:46;;;;;;;3.20;2.15;;;;;;;9.87;68.90;98174.22;4995380;28;20050;-82
2021/01/20 10:12:14;;;;;;;2.75;1.70;;;;;;;9.88;68.99;98178.50;4994334;28;20500;-82
2021/01/20 10:14:41;;;;;;;3.33;1.63;;;;;;;9.90;68.93;98173.13;4994812;28;20055;-82
2021/01/20 10:17:08;;;;;;;2.67;1.77;;;;;;;9.90;69.10;98166.09;4994039;28;20096;-82
2021/01/20 10:19:34;;;;;;;4.97;2.05;;;;;;;9.93;69.09;98161.53;4994983;28;20081;-82
2021/01/20 10:22:00;;;;;;;3.97;1.80;;;;;;;9.94;69.48;98164.03;4993094;28;20057;-83
2021/01/20 10:24:26;;;;;;;2.33;1.55;;;;;;;9.93;68.72;98170.25;4994718;28;20105;-82
2021/01/20 10:26:53;;;;;;;3.10;1.77;;;;;;;9.96;69.33;98164.75;4994700;28;20050;-82
2021/01/20 10:29:19;;;;;;;4.50;1.90;;;;;;;9.99;69.41;98158.44;4994934;28;20058;-83
2021/01/20 10:31:45;;;;;;;3.67;2.03;;;;;;;10.01;69.33;98167.00;4994665;28;20055;-82
2021/01/20 10:34:12;;;;;;;3.20;1.75;;;;;;;10.05;69.65;98152.66;4993278;28;20054;-83
2021/01/20 10:36:39;;;;;;;4.32;2.20;;;;;;;10.07;69.44;98147.28;4994925;28;20112;-82
2021/01/20 10:39:08;;;;;;;2.15;1.90;;;;;;;10.08;68.62;98135.81;4994488;28;20050;-82
2021/01/20 10:41:35;;;;;;;4.13;2.00;;;;;;;10.13;69.54;98138.91;4994541;28;20050;-83
2021/01/20 10:44:01;;;;;;;3.95;1.73;;;;;;;10.21;70.13;98140.91;4992694;28;20054;-83
2021/01/20 10:46:27;;;;;;;3.97;1.80;;;;;;;10.25;69.72;98121.28;4994159;28;20491;-82
2021/01/20 10:48:55;;;;;;;2.63;2.08;;;;;;;10.31;69.80;98128.66;4994365;28;20050;-83
2021/01/20 10:51:22;;;;;;;2.88;1.90;;;;;;;10.36;69.24;98112.50;4994238;28;20055;-82
2021/01/20 10:53:48;;;;;;;3.78;1.95;;;;;;;10.42;69.12;98112.84;4993718;28;20054;-83
2021/01/20 10:56:15;;;;;;;2.55;1.80;;;;;;;10.51;68.98;98121.78;4993954;28;20046;-82
2021/01/20 10:58:41;;;;;;;4.57;2.15;;;;;;;10.58;68.73;98102.88;4994078;28;20463;-82
2021/01/20 11:01:08;;;;;;;3.28;2.33;;;;;;;10.67;69.04;98089.78;4994610;28;20050;-83
2021/01/20 11:03:34;;;;;;;3.13;1.92;;;;;;;10.80;69.24;98101.88;4993500;28;20050;-82
2021/01/20 11:06:01;;;;;;;5.55;2.00;;;;;;;10.89;68.34;98097.63;4993931;28;20507;-83
2021/01/20 11:08:28;;;;;;;5.22;1.70;;;;;;;11.01;67.48;98104.50;4994149;28;20053;-82
2021/01/20 11:10:54;;;;;;;3.15;2.13;;;;;;;11.08;66.34;98105.66;4993855;28;20470;-82
2021/01/20 11:13:20;;;;;;;4.80;2.10;;;;;;;11.19;67.32;98083.66;4993779;28;20054;-82
2021/01/20 11:15:46;;;;;;;2.92;1.80;;;;;;;11.26;66.84;98102.38;4994080;28;20097;-83
2021/01/20 11:18:18;;;;;;;2.95;1.90;;;;;;;11.34;65.90;98102.53;4993077;28;20050;-83
2021/01/20 11:20:46;;;;;;;2.45;1.73;;;;;;;11.45;66.42;98091.03;4993394;28;20426;-82
2021/01/20 11:23:13;;;;;;;7.60;1.80;;;;;;;11.56;66.91;98094.56;4993591;28;20509;-84
2021/01/20 11:25:44;;;;;;;3.33;2.05;;;;;;;11.65;64.72;98087.63;4994474;28;20050;-84
2021/01/20 11:28:11;;;;;;;3.13;1.90;;;;;;;11.81;67.12;98093.22;4993286;28;20046;-83
2021/01/20 11:30:39;;;;;;;3.22;1.88;;;;;;;11.98;65.64;98101.41;4994045;28;20085;-83
2021/01/20 11:33:06;;;;;;;2.17;1.80;;;;;;;12.22;67.48;98089.63;4994284;28;20081;-82
2021/01/20 11:35:33;;;;;;;2.00;1.60;;;;;;;12.53;68.29;98080.72;4993719;28;20046;-82
2021/01/20 11:37:59;;;;;;;2.80;1.92;;;;;;;12.83;67.57;98077.06;4994216;28;20054;-83
2021/01/20 11:40:26;;;;;;;4.65;1.90;;;;;;;13.08;65.02;98069.44;4993958;28;20054;-82
2021/01/20 11:42:59;;;;;;;2.97;2.10;;;;;;;13.35;62.82;98053.75;4993792;28;20057;-82
2021/01/20 11:45:31;;;;;;;2.50;1.90;;;;;;;13.60;61.29;98060.16;4993975;28;20061;-83
2021/01/20 11:47:59;;;;;;;2.75;1.80;;;;;;;13.82;62.82;98060.72;4994100;28;20146;-82
2021/01/20 11:50:26;;;;;;;3.20;2.05;;;;;;;14.04;63.28;98051.50;4993243;28;20097;-82
2021/01/20 11:52:53;;;;;;;2.97;1.98;;;;;;;14.29;62.22;98053.50;4993445;28;20057;-86
2021/01/20 11:55:20;;;;;;;3.60;2.17;;;;;;;14.58;62.17;98049.75;4993876;28;20050;-82
2021/01/20 11:57:46;;;;;;;3.80;1.60;;;;;;;14.85;60.61;98047.94;4993997;28;20049;-82
2021/01/20 12:00:13;;;;;;;2.83;1.83;;;;;;;15.11;61.23;98047.91;4993876;28;20057;-82
2021/01/20 12:02:40;;;;;;;3.20;2.38;;;;;;;15.36;59.65;98057.75;4992018;28;20050;-83
2021/01/20 12:05:08;;;;;;;3.92;2.40;;;;;;;15.62;59.45;98049.72;4994114;28;20050;-82
2021/01/20 12:07:36;;;;;;;3.92;2.38;;;;;;;15.88;60.32;98046.13;4994279;28;20050;-82
2021/01/20 12:10:03;;;;;;;3.35;2.08;;;;;;;16.06;58.45;98036.34;4992644;28;20061;-84
2021/01/20 12:12:30;;;;;;;2.78;2.08;;;;;;;16.24;57.98;98052.97;4993568;28;20054;-83
2021/01/20 12:14:56;;;;;;;2.60;2.08;;;;;;;16.36;54.08;98061.41;4993939;28;20074;-83
2021/01/20 12:17:22;;;;;;;3.20;2.33;;;;;;;16.48;55.46;98051.28;4993578;28;20057;-83
2021/01/20 12:19:48;;;;;;;3.33;2.08;;;;;;;16.62;56.60;98025.88;4993725;28;20046;-82